sensor_id;sensor_type;location;lat;lon;timestamp;pressure;altitude;pressure_sealevel;temperature;humidity
61337;BME280;47212;41.326;2.104;2022-11-03T00:05:00;101918.19;;;18.29;67.60
61337;BME280;47212;41.326;2.104;2022-11-03T00:10:45;101919.00;;;18.29;67.68
61337;BME280;47212;41.326;2.104;2022-11-03T00:16:16;101897.53;;;18.26;67.67
61337;BME280;47212;41.326;2.104;2022-11-03T00:21:41;101887.91;;;18.24;67.72
61337;BME280;47212;41.326;2.104;2022-11-03T00:27:05;101887.06;;;18.23;67.81
61337;BME280;47212;41.326;2.104;2022-11-03T00:32:28;101881.03;;;18.21;67.88
61337;BME280;47212;41.326;2.104;2022-11-03T00:37:54;101877.72;;;18.14;68.01
61337;BME280;47212;41.326;2.104;2022-11-03T00:43:13;101864.53;;;18.11;67.97
61337;BME280;47212;41.326;2.104;2022-11-03T00:48:31;101869.22;;;18.10;68.16
61337;BME280;47212;41.326;2.104;2022-11-03T00:53:56;101865.63;;;18.10;68.29
61337;BME280;47212;41.326;2.104;2022-11-03T00:59:12;101866.72;;;18.14;68.12
61337;BME280;47212;41.326;2.104;2022-11-03T01:04:38;101858.47;;;18.09;67.85
61337;BME280;47212;41.326;2.104;2022-11-03T01:10:09;101851.91;;;18.05;67.88
61337;BME280;47212;41.326;2.104;2022-11-03T01:15:21;101846.66;;;18.03;68.09
61337;BME280;47212;41.326;2.104;2022-11-03T01:20:40;101837.03;;;18.01;68.26
61337;BME280;47212;41.326;2.104;2022-11-03T01:26:02;101828.25;;;17.99;68.40
61337;BME280;47212;41.326;2.104;2022-11-03T01:31:22;101818.34;;;17.98;68.44
61337;BME280;47212;41.326;2.104;2022-11-03T01:36:45;101806.25;;;17.94;68.24
61337;BME280;47212;41.326;2.104;2022-11-03T01:42:03;101804.63;;;17.88;68.18
61337;BME280;47212;41.326;2.104;2022-11-03T01:47:28;101794.47;;;17.83;68.46
61337;BME280;47212;41.326;2.104;2022-11-03T01:52:48;101793.41;;;17.79;68.40
61337;BME280;47212;41.326;2.104;2022-11-03T01:58:30;101787.09;;;17.73;68.63
61337;BME280;47212;41.326;2.104;2022-11-03T02:03:31;101782.72;;;17.67;68.64
61337;BME280;47212;41.326;2.104;2022-11-03T02:13:41;101783.25;;;17.64;68.78
61337;BME280;47212;41.326;2.104;2022-11-03T02:18:48;101777.22;;;17.62;68.80
61337;BME280;47212;41.326;2.104;2022-11-03T02:24:31;101771.16;;;17.65;69.00
61337;BME280;47212;41.326;2.104;2022-11-03T02:29:47;101753.53;;;17.66;68.56
61337;BME280;47212;41.326;2.104;2022-11-03T02:35:07;101754.91;;;17.69;69.20
61337;BME280;47212;41.326;2.104;2022-11-03T02:40:28;101730.66;;;17.71;69.16
61337;BME280;47212;41.326;2.104;2022-11-03T02:45:40;101733.41;;;17.71;69.16
61337;BME280;47212;41.326;2.104;2022-11-03T02:51:10;101719.09;;;17.69;69.18
61337;BME280;47212;41.326;2.104;2022-11-03T02:56:22;101710.31;;;17.67;69.19
61337;BME280;47212;41.326;2.104;2022-11-03T03:01:37;101690.75;;;17.63;69.21
61337;BME280;47212;41.326;2.104;2022-11-03T03:07:00;101697.91;;;17.64;69.09
61337;BME280;47212;41.326;2.104;2022-11-03T03:12:09;101677.56;;;17.60;68.72
61337;BME280;47212;41.326;2.104;2022-11-03T03:17:29;101685.59;;;17.57;69.02
61337;BME280;47212;41.326;2.104;2022-11-03T03:22:46;101690.25;;;17.56;69.15
61337;BME280;47212;41.326;2.104;2022-11-03T03:28:12;101683.13;;;17.55;69.06
61337;BME280;47212;41.326;2.104;2022-11-03T03:33:25;101692.47;;;17.54;68.70
61337;BME280;47212;41.326;2.104;2022-11-03T03:38:41;101682.63;;;17.48;68.89
61337;BME280;47212;41.326;2.104;2022-11-03T03:43:52;101683.44;;;17.48;69.03
61337;BME280;47212;41.326;2.104;2022-11-03T03:49:00;101674.91;;;17.50;68.80
61337;BME280;47212;41.326;2.104;2022-11-03T03:54:09;101662.19;;;17.54;69.00
61337;BME280;47212;41.326;2.104;2022-11-03T04:07:21;101660.50;;;17.58;68.77
61337;BME280;47212;41.326;2.104;2022-11-03T04:12:45;101666.59;;;17.55;68.70
61337;BME280;47212;41.326;2.104;2022-11-03T04:18:06;101658.91;;;17.52;68.44
61337;BME280;47212;41.326;2.104;2022-11-03T04:23:29;101658.38;;;17.50;68.66
61337;BME280;47212;41.326;2.104;2022-11-03T04:28:31;101660.34;;;17.44;68.58
61337;BME280;47212;41.326;2.104;2022-11-03T04:33:33;101639.72;;;17.42;68.23
61337;BME280;47212;41.326;2.104;2022-11-03T04:38:35;101650.47;;;17.38;68.60
61337;BME280;47212;41.326;2.104;2022-11-03T04:43:37;101648.00;;;17.37;68.47
61337;BME280;47212;41.326;2.104;2022-11-03T04:48:40;101642.78;;;17.30;68.38
61337;BME280;47212;41.326;2.104;2022-11-03T04:53:49;101642.53;;;17.27;68.46
61337;BME280;47212;41.326;2.104;2022-11-03T04:58:52;101635.66;;;17.29;68.39
61337;BME280;47212;41.326;2.104;2022-11-03T05:03:54;101633.19;;;17.28;68.69
61337;BME280;47212;41.326;2.104;2022-11-03T05:09:01;101623.53;;;17.30;68.79
61337;BME280;47212;41.326;2.104;2022-11-03T05:14:21;101622.13;;;17.33;69.31
61337;BME280;47212;41.326;2.104;2022-11-03T05:39:44;101612.81;;;17.29;70.14
61337;BME280;47212;41.326;2.104;2022-11-03T05:44:56;101613.38;;;17.26;69.76
61337;BME280;47212;41.326;2.104;2022-11-03T05:55:37;101598.00;;;17.25;70.28
61337;BME280;47212;41.326;2.104;2022-11-03T06:00:41;101591.38;;;17.26;69.97
61337;BME280;47212;41.326;2.104;2022-11-03T06:05:49;101596.06;;;17.25;70.10
61337;BME280;47212;41.326;2.104;2022-11-03T06:10:54;101598.28;;;17.23;69.58
61337;BME280;47212;41.326;2.104;2022-11-03T06:16:01;101588.38;;;17.22;69.79
61337;BME280;47212;41.326;2.104;2022-11-03T06:21:18;101581.47;;;17.25;69.59
61337;BME280;47212;41.326;2.104;2022-11-03T06:26:26;101582.00;;;17.27;69.65
61337;BME280;47212;41.326;2.104;2022-11-03T06:31:30;101578.16;;;17.28;69.62
61337;BME280;47212;41.326;2.104;2022-11-03T06:36:38;101586.94;;;17.30;69.29
61337;BME280;47212;41.326;2.104;2022-11-03T06:41:40;101579.22;;;17.32;69.27
61337;BME280;47212;41.326;2.104;2022-11-03T06:46:42;101588.31;;;17.32;69.51
61337;BME280;47212;41.326;2.104;2022-11-03T06:51:44;101588.88;;;17.34;69.34
61337;BME280;47212;41.326;2.104;2022-11-03T06:56:47;101604.28;;;17.35;69.29
61337;BME280;47212;41.326;2.104;2022-11-03T07:02:01;101602.34;;;17.36;69.29
61337;BME280;47212;41.326;2.104;2022-11-03T07:07:23;101585.25;;;17.39;69.48
61337;BME280;47212;41.326;2.104;2022-11-03T07:12:32;101590.19;;;17.42;69.14
61337;BME280;47212;41.326;2.104;2022-11-03T07:17:34;101590.44;;;17.45;69.45
61337;BME280;47212;41.326;2.104;2022-11-03T07:22:36;101582.13;;;17.50;69.50
61337;BME280;47212;41.326;2.104;2022-11-03T07:27:38;101571.88;;;17.56;69.40
61337;BME280;47212;41.326;2.104;2022-11-03T07:32:41;101571.03;;;17.61;69.46
61337;BME280;47212;41.326;2.104;2022-11-03T07:37:51;101574.00;;;17.69;69.10
61337;BME280;47212;41.326;2.104;2022-11-03T07:48:55;101571.69;;;17.81;68.24
61337;BME280;47212;41.326;2.104;2022-11-03T08:04:17;101575.38;;;17.96;68.38
61337;BME280;47212;41.326;2.104;2022-11-03T08:09:49;101565.94;;;18.02;68.19
61337;BME280;47212;41.326;2.104;2022-11-03T08:14:51;101559.28;;;18.08;68.36
61337;BME280;47212;41.326;2.104;2022-11-03T08:19:54;101558.31;;;18.23;67.92
61337;BME280;47212;41.326;2.104;2022-11-03T08:24:56;101536.38;;;18.55;66.97
61337;BME280;47212;41.326;2.104;2022-11-03T08:29:58;101524.47;;;18.60;67.39
61337;BME280;47212;41.326;2.104;2022-11-03T08:35:00;101516.22;;;18.97;66.74
61337;BME280;47212;41.326;2.104;2022-11-03T08:40:03;101507.97;;;19.62;65.43
61337;BME280;47212;41.326;2.104;2022-11-03T08:45:11;101517.75;;;20.01;64.05
61337;BME280;47212;41.326;2.104;2022-11-03T08:50:17;101520.06;;;19.94;64.08
61337;BME280;47212;41.326;2.104;2022-11-03T08:55:19;101524.25;;;19.78;64.64
61337;BME280;47212;41.326;2.104;2022-11-03T09:00:21;101523.84;;;19.70;64.78
61337;BME280;47212;41.326;2.104;2022-11-03T09:05:23;101520.78;;;19.86;64.86
61337;BME280;47212;41.326;2.104;2022-11-03T09:10:25;101508.84;;;20.31;64.50
61337;BME280;47212;41.326;2.104;2022-11-03T09:15:38;101506.59;;;20.83;63.30
61337;BME280;47212;41.326;2.104;2022-11-03T09:20:42;101507.47;;;21.28;62.28
61337;BME280;47212;41.326;2.104;2022-11-03T09:25:45;101503.38;;;21.57;62.01
61337;BME280;47212;41.326;2.104;2022-11-03T09:30:47;101494.38;;;21.74;62.12
61337;BME280;47212;41.326;2.104;2022-11-03T09:35:49;101485.88;;;21.70;62.71
61337;BME280;47212;41.326;2.104;2022-11-03T09:40:51;101479.59;;;21.87;63.02
61337;BME280;47212;41.326;2.104;2022-11-03T09:45:54;101481.94;;;22.02;63.23
61337;BME280;47212;41.326;2.104;2022-11-03T09:50:56;101479.31;;;21.97;63.62
61337;BME280;47212;41.326;2.104;2022-11-03T09:55:58;101480.38;;;21.79;64.72
61337;BME280;47212;41.326;2.104;2022-11-03T10:01:00;101484.03;;;21.66;65.82
61337;BME280;47212;41.326;2.104;2022-11-03T10:06:03;101473.59;;;21.62;66.85
61337;BME280;47212;41.326;2.104;2022-11-03T10:11:06;101448.47;;;21.90;67.68
61337;BME280;47212;41.326;2.104;2022-11-03T10:16:14;101448.72;;;22.19;68.02
61337;BME280;47212;41.326;2.104;2022-11-03T10:21:22;101428.66;;;22.31;67.50
61337;BME280;47212;41.326;2.104;2022-11-03T10:26:26;101431.78;;;22.30;68.24
61337;BME280;47212;41.326;2.104;2022-11-03T10:31:35;101439.78;;;22.31;71.14
61337;BME280;47212;41.326;2.104;2022-11-03T10:36:48;101439.28;;;22.29;72.43
61337;BME280;47212;41.326;2.104;2022-11-03T10:41:55;101431.44;;;22.31;73.42
61337;BME280;47212;41.326;2.104;2022-11-03T10:47:05;101429.00;;;22.30;73.28
61337;BME280;47212;41.326;2.104;2022-11-03T11:09:40;101395.22;;;22.45;74.55
61337;BME280;47212;41.326;2.104;2022-11-03T11:14:57;101394.56;;;22.31;75.94
61337;BME280;47212;41.326;2.104;2022-11-03T11:36:23;101361.13;;;22.87;73.39
61337;BME280;47212;41.326;2.104;2022-11-03T11:52:26;101340.69;;;22.92;70.72
61337;BME280;47212;41.326;2.104;2022-11-03T11:57:33;101336.63;;;22.72;69.90
61337;BME280;47212;41.326;2.104;2022-11-03T12:02:36;101307.78;;;22.56;69.94
61337;BME280;47212;41.326;2.104;2022-11-03T12:07:42;101302.06;;;22.44;70.14
61337;BME280;47212;41.326;2.104;2022-11-03T12:12:44;101303.22;;;22.34;70.57
61337;BME280;47212;41.326;2.104;2022-11-03T12:17:47;101285.94;;;22.29;70.85
61337;BME280;47212;41.326;2.104;2022-11-03T12:22:48;101289.69;;;22.24;71.12
61337;BME280;47212;41.326;2.104;2022-11-03T12:27:50;101284.47;;;22.22;70.96
61337;BME280;47212;41.326;2.104;2022-11-03T12:32:53;101291.81;;;22.18;71.27
61337;BME280;47212;41.326;2.104;2022-11-03T12:37:55;101299.00;;;22.19;71.42
61337;BME280;47212;41.326;2.104;2022-11-03T12:42:57;101276.00;;;22.19;71.82
61337;BME280;47212;41.326;2.104;2022-11-03T12:47:59;101263.28;;;22.18;71.89
61337;BME280;47212;41.326;2.104;2022-11-03T12:53:02;101264.75;;;22.15;71.84
61337;BME280;47212;41.326;2.104;2022-11-03T12:58:05;101255.13;;;22.13;71.95
61337;BME280;47212;41.326;2.104;2022-11-03T13:03:08;101252.50;;;22.08;72.63
61337;BME280;47212;41.326;2.104;2022-11-03T13:08:10;101230.78;;;22.01;72.83
61337;BME280;47212;41.326;2.104;2022-11-03T13:13:13;101220.38;;;21.98;73.50
61337;BME280;47212;41.326;2.104;2022-11-03T13:18:15;101209.13;;;21.94;73.81
61337;BME280;47212;41.326;2.104;2022-11-03T13:23:17;101176.69;;;21.95;73.98
61337;BME280;47212;41.326;2.104;2022-11-03T13:28:23;101168.03;;;21.97;73.82
61337;BME280;47212;41.326;2.104;2022-11-03T13:33:30;101177.66;;;21.99;73.92
61337;BME280;47212;41.326;2.104;2022-11-03T13:38:32;101161.19;;;22.03;73.91
61337;BME280;47212;41.326;2.104;2022-11-03T13:43:34;101135.25;;;22.07;73.74
61337;BME280;47212;41.326;2.104;2022-11-03T13:48:36;101121.88;;;22.09;73.75
61337;BME280;47212;41.326;2.104;2022-11-03T13:53:58;101109.66;;;22.10;72.81
61337;BME280;47212;41.326;2.104;2022-11-03T13:59:23;101114.38;;;22.10;71.97
61337;BME280;47212;41.326;2.104;2022-11-03T14:04:26;101120.25;;;22.08;71.51
61337;BME280;47212;41.326;2.104;2022-11-03T14:09:45;101112.28;;;22.07;71.77
61337;BME280;47212;41.326;2.104;2022-11-03T14:14:52;101129.38;;;22.00;75.49
61337;BME280;47212;41.326;2.104;2022-11-03T14:19:54;101139.34;;;21.92;75.72
61337;BME280;47212;41.326;2.104;2022-11-03T14:25:03;101136.59;;;21.84;77.08
61337;BME280;47212;41.326;2.104;2022-11-03T14:30:06;101116.38;;;21.75;79.03
61337;BME280;47212;41.326;2.104;2022-11-03T14:35:15;101121.63;;;21.68;79.74
61337;BME280;47212;41.326;2.104;2022-11-03T14:40:17;101122.91;;;21.61;80.58
61337;BME280;47212;41.326;2.104;2022-11-03T14:45:41;101122.09;;;21.61;81.52
61337;BME280;47212;41.326;2.104;2022-11-03T14:50:46;101121.28;;;21.60;82.84
61337;BME280;47212;41.326;2.104;2022-11-03T14:55:49;101114.09;;;21.59;82.05
61337;BME280;47212;41.326;2.104;2022-11-03T15:00:53;101114.28;;;21.54;71.31
61337;BME280;47212;41.326;2.104;2022-11-03T15:05:55;101110.84;;;21.57;68.42
61337;BME280;47212;41.326;2.104;2022-11-03T15:10:57;101107.25;;;21.66;66.68
61337;BME280;47212;41.326;2.104;2022-11-03T15:16:00;101092.75;;;21.77;65.75
61337;BME280;47212;41.326;2.104;2022-11-03T15:21:02;101093.22;;;21.88;65.04
61337;BME280;47212;41.326;2.104;2022-11-03T15:26:04;101105.09;;;21.97;63.85
61337;BME280;47212;41.326;2.104;2022-11-03T15:31:14;101107.19;;;22.00;62.85
61337;BME280;47212;41.326;2.104;2022-11-03T15:36:19;101110.47;;;22.02;62.64
61337;BME280;47212;41.326;2.104;2022-11-03T15:41:21;101111.47;;;22.06;61.68
61337;BME280;47212;41.326;2.104;2022-11-03T15:46:24;101100.38;;;22.06;60.68
61337;BME280;47212;41.326;2.104;2022-11-03T15:51:30;101106.41;;;22.08;59.89
61337;BME280;47212;41.326;2.104;2022-11-03T15:56:32;101102.81;;;22.08;59.63
61337;BME280;47212;41.326;2.104;2022-11-03T16:01:34;101103.00;;;22.03;59.33
61337;BME280;47212;41.326;2.104;2022-11-03T16:06:36;101111.44;;;21.98;59.06
61337;BME280;47212;41.326;2.104;2022-11-03T16:11:59;101100.53;;;21.92;58.77
61337;BME280;47212;41.326;2.104;2022-11-03T16:17:01;101103.81;;;21.86;58.98
61337;BME280;47212;41.326;2.104;2022-11-03T16:22:03;101107.25;;;21.83;58.37
61337;BME280;47212;41.326;2.104;2022-11-03T16:27:08;101111.00;;;21.78;57.43
61337;BME280;47212;41.326;2.104;2022-11-03T16:32:17;101121.44;;;21.73;56.97
61337;BME280;47212;41.326;2.104;2022-11-03T16:37:43;101116.69;;;21.65;56.15
61337;BME280;47212;41.326;2.104;2022-11-03T16:42:46;101110.19;;;21.60;58.19
61337;BME280;47212;41.326;2.104;2022-11-03T16:47:49;101099.13;;;21.52;58.03
61337;BME280;47212;41.326;2.104;2022-11-03T16:52:52;101108.41;;;21.47;58.07
61337;BME280;47212;41.326;2.104;2022-11-03T16:57:54;101112.00;;;21.39;58.15
61337;BME280;47212;41.326;2.104;2022-11-03T17:02:56;101100.28;;;21.34;58.19
61337;BME280;47212;41.326;2.104;2022-11-03T17:07:59;101095.22;;;21.27;57.99
61337;BME280;47212;41.326;2.104;2022-11-03T17:13:01;101098.63;;;21.24;57.84
61337;BME280;47212;41.326;2.104;2022-11-03T17:18:09;101102.34;;;21.19;57.96
61337;BME280;47212;41.326;2.104;2022-11-03T17:23:11;101104.47;;;21.14;58.00
61337;BME280;47212;41.326;2.104;2022-11-03T17:28:17;101113.25;;;21.07;57.81
61337;BME280;47212;41.326;2.104;2022-11-03T17:33:19;101125.28;;;21.03;57.78
61337;BME280;47212;41.326;2.104;2022-11-03T17:38:22;101125.44;;;20.97;57.63
61337;BME280;47212;41.326;2.104;2022-11-03T17:43:27;101126.09;;;20.94;57.10
61337;BME280;47212;41.326;2.104;2022-11-03T17:48:32;101117.94;;;20.89;57.32
61337;BME280;47212;41.326;2.104;2022-11-03T17:53:34;101124.94;;;20.87;57.08
61337;BME280;47212;41.326;2.104;2022-11-03T17:58:37;101124.28;;;20.81;56.36
61337;BME280;47212;41.326;2.104;2022-11-03T18:03:49;101135.63;;;20.80;56.35
61337;BME280;47212;41.326;2.104;2022-11-03T18:08:52;101132.59;;;20.81;56.00
61337;BME280;47212;41.326;2.104;2022-11-03T18:14:02;101142.00;;;20.80;55.79
61337;BME280;47212;41.326;2.104;2022-11-03T18:19:07;101149.78;;;20.78;55.92
61337;BME280;47212;41.326;2.104;2022-11-03T18:24:12;101148.16;;;20.77;55.98
61337;BME280;47212;41.326;2.104;2022-11-03T18:29:14;101161.50;;;20.75;55.94
61337;BME280;47212;41.326;2.104;2022-11-03T18:34:24;101152.72;;;20.73;54.94
61337;BME280;47212;41.326;2.104;2022-11-03T18:39:27;101150.59;;;20.70;56.33
61337;BME280;47212;41.326;2.104;2022-11-03T18:44:29;101155.63;;;20.68;56.40
61337;BME280;47212;41.326;2.104;2022-11-03T18:49:31;101155.13;;;20.66;56.42
61337;BME280;47212;41.326;2.104;2022-11-03T18:54:43;101155.44;;;20.64;55.87
61337;BME280;47212;41.326;2.104;2022-11-03T18:59:46;101158.53;;;20.63;56.83
61337;BME280;47212;41.326;2.104;2022-11-03T19:04:49;101183.09;;;20.64;56.62
61337;BME280;47212;41.326;2.104;2022-11-03T19:09:51;101182.28;;;20.64;56.77
61337;BME280;47212;41.326;2.104;2022-11-03T19:14:53;101183.59;;;20.66;56.40
61337;BME280;47212;41.326;2.104;2022-11-03T19:19:56;101185.22;;;20.67;56.30
61337;BME280;47212;41.326;2.104;2022-11-03T19:33:20;101193.22;;;20.69;55.45
61337;BME280;47212;41.326;2.104;2022-11-03T19:38:23;101198.75;;;20.69;56.70
61337;BME280;47212;41.326;2.104;2022-11-03T19:43:26;101192.72;;;20.67;57.03
61337;BME280;47212;41.326;2.104;2022-11-03T19:48:38;101193.34;;;20.64;57.22
61337;BME280;47212;41.326;2.104;2022-11-03T19:53:41;101191.72;;;20.63;57.02
61337;BME280;47212;41.326;2.104;2022-11-03T19:58:51;101188.47;;;20.61;56.84
61337;BME280;47212;41.326;2.104;2022-11-03T20:03:57;101190.22;;;20.57;57.69
61337;BME280;47212;41.326;2.104;2022-11-03T20:09:01;101191.19;;;20.52;57.52
61337;BME280;47212;41.326;2.104;2022-11-03T20:14:15;101203.03;;;20.44;57.76
61337;BME280;47212;41.326;2.104;2022-11-03T20:19:18;101204.78;;;20.40;58.31
61337;BME280;47212;41.326;2.104;2022-11-03T20:24:23;101200.69;;;20.38;58.46
61337;BME280;47212;41.326;2.104;2022-11-03T20:29:27;101197.22;;;20.32;58.47
61337;BME280;47212;41.326;2.104;2022-11-03T20:34:35;101199.31;;;20.26;58.78
61337;BME280;47212;41.326;2.104;2022-11-03T20:39:38;101192.47;;;20.24;58.76
61337;BME280;47212;41.326;2.104;2022-11-03T20:44:40;101210.81;;;20.20;59.09
61337;BME280;47212;41.326;2.104;2022-11-03T20:49:45;101213.41;;;20.16;59.30
61337;BME280;47212;41.326;2.104;2022-11-03T20:54:48;101223.13;;;20.14;59.44
61337;BME280;47212;41.326;2.104;2022-11-03T20:59:51;101235.00;;;20.14;59.55
61337;BME280;47212;41.326;2.104;2022-11-03T21:04:53;101228.34;;;20.15;59.37
61337;BME280;47212;41.326;2.104;2022-11-03T21:09:55;101237.03;;;20.22;59.55
61337;BME280;47212;41.326;2.104;2022-11-03T21:14:58;101243.88;;;20.25;59.57
61337;BME280;47212;41.326;2.104;2022-11-03T21:20:18;101236.38;;;20.25;59.66
61337;BME280;47212;41.326;2.104;2022-11-03T21:25:21;101238.03;;;20.26;59.58
61337;BME280;47212;41.326;2.104;2022-11-03T21:30:33;101234.13;;;20.27;60.25
61337;BME280;47212;41.326;2.104;2022-11-03T21:35:35;101234.75;;;20.24;60.76
61337;BME280;47212;41.326;2.104;2022-11-03T21:40:44;101220.44;;;20.22;61.10
61337;BME280;47212;41.326;2.104;2022-11-03T21:45:47;101216.03;;;20.21;61.53
61337;BME280;47212;41.326;2.104;2022-11-03T21:50:49;101232.13;;;20.19;61.77
61337;BME280;47212;41.326;2.104;2022-11-03T21:55:56;101236.66;;;20.15;61.86
61337;BME280;47212;41.326;2.104;2022-11-03T22:01:02;101236.16;;;20.13;62.06
61337;BME280;47212;41.326;2.104;2022-11-03T22:06:08;101245.06;;;20.10;62.28
61337;BME280;47212;41.326;2.104;2022-11-03T22:11:11;101246.69;;;20.11;62.46
61337;BME280;47212;41.326;2.104;2022-11-03T22:16:23;101253.66;;;20.09;62.39
61337;BME280;47212;41.326;2.104;2022-11-03T22:21:38;101250.41;;;20.07;62.78
61337;BME280;47212;41.326;2.104;2022-11-03T22:26:59;101248.47;;;20.07;62.36
61337;BME280;47212;41.326;2.104;2022-11-03T22:32:01;101249.59;;;20.06;62.81
61337;BME280;47212;41.326;2.104;2022-11-03T22:37:05;101240.97;;;20.08;62.68
61337;BME280;47212;41.326;2.104;2022-11-03T22:42:09;101245.38;;;20.09;63.04
61337;BME280;47212;41.326;2.104;2022-11-03T22:47:33;101245.69;;;20.07;63.17
61337;BME280;47212;41.326;2.104;2022-11-03T22:52:40;101245.69;;;20.07;62.97
61337;BME280;47212;41.326;2.104;2022-11-03T22:57:42;101237.72;;;20.06;63.06
61337;BME280;47212;41.326;2.104;2022-11-03T23:02:47;101226.16;;;20.03;62.85
61337;BME280;47212;41.326;2.104;2022-11-03T23:07:50;101223.72;;;20.02;62.86
61337;BME280;47212;41.326;2.104;2022-11-03T23:12:56;101205.19;;;20.02;63.08
61337;BME280;47212;41.326;2.104;2022-11-03T23:17:59;101205.50;;;20.01;62.45
61337;BME280;47212;41.326;2.104;2022-11-03T23:23:23;101212.03;;;20.05;61.75
61337;BME280;47212;41.326;2.104;2022-11-03T23:28:45;101221.31;;;20.09;62.34
61337;BME280;47212;41.326;2.104;2022-11-03T23:33:47;101228.47;;;20.10;62.58
61337;BME280;47212;41.326;2.104;2022-11-03T23:38:53;101227.97;;;20.08;62.83
61337;BME280;47212;41.326;2.104;2022-11-03T23:43:56;101222.56;;;20.03;63.12
61337;BME280;47212;41.326;2.104;2022-11-03T23:48:58;101226.59;;;19.97;63.18
61337;BME280;47212;41.326;2.104;2022-11-03T23:54:03;101223.34;;;19.95;62.95
61337;BME280;47212;41.326;2.104;2022-11-03T23:59:15;101215.13;;;19.90;62.41
